Time;durP1;ratioP1;P1;durP2;ratioP2;P2;SDS_P1;SDS_P2;PMS_P1;PMS_P2;Temp;Humidity;BMP_temperature;BMP_pressure;BME280_temperature;BME280_humidity;BME280_pressure;Samples;Min_cycle;Max_cycle;Signal;HPM_P1;HPM_P2
2021/05/28 00:00:14;;;;;;;2.50;2.30;;;;;;;12.32;71.29;101240.22;691388;28;22293;-63
2021/05/28 00:00:35;;;;;;;2.30;2.20;;;;;;;12.33;71.42;101241.88;690177;28;64881;-63
2021/05/28 00:00:57;;;;;;;2.50;2.30;;;;;;;12.32;71.13;101242.06;691667;28;10563;-64
2021/05/28 00:01:19;;;;;;;2.58;2.33;;;;;;;12.33;71.11;101244.59;692284;28;843;-63
2021/05/28 00:01:40;;;;;;;2.53;2.33;;;;;;;12.33;71.36;101241.88;690922;28;40823;-64
2021/05/28 00:02:02;;;;;;;2.70;2.50;;;;;;;12.34;71.16;101237.31;691666;28;37297;-63
2021/05/28 00:02:23;;;;;;;2.33;2.20;;;;;;;12.34;70.97;101243.56;691671;28;23957;-63
2021/05/28 00:02:44;;;;;;;2.60;2.40;;;;;;;12.34;71.22;101251.72;692688;28;7872;-63
2021/05/28 00:03:05;;;;;;;2.25;2.15;;;;;;;12.34;70.89;101250.88;692736;28;23521;-63
2021/05/28 00:03:26;;;;;;;2.40;2.20;;;;;;;12.34;70.95;101246.28;693490;28;914;-63
2021/05/28 00:03:48;;;;;;;2.50;2.30;;;;;;;12.34;70.82;101253.59;692734;28;22398;-63
2021/05/28 00:04:09;;;;;;;2.78;2.30;;;;;;;12.34;71.00;101245.44;690923;28;44403;-63
2021/05/28 00:04:30;;;;;;;2.50;2.30;;;;;;;12.33;71.24;101250.00;690778;28;23416;-63
2021/05/28 00:04:51;;;;;;;2.63;2.42;;;;;;;12.33;71.13;101252.72;691408;28;24404;-63
2021/05/28 00:05:13;;;;;;;2.42;2.33;;;;;;;12.33;71.11;101258.13;691192;28;23419;-63
2021/05/28 00:05:35;;;;;;;2.47;2.30;;;;;;;12.33;71.03;101260.84;689555;28;70199;-63
2021/05/28 00:05:56;;;;;;;2.50;2.30;;;;;;;12.33;71.32;101254.59;691253;28;23465;-64
2021/05/28 00:06:18;;;;;;;2.30;2.20;;;;;;;12.33;71.11;101254.59;691750;28;23502;-63
2021/05/28 00:06:42;;;;;;;2.28;2.17;;;;;;;12.33;70.87;101255.41;693711;28;34977;-63
2021/05/28 00:07:03;;;;;;;2.38;2.20;;;;;;;12.32;70.92;101252.88;693391;28;43635;-63
2021/05/28 00:07:24;;;;;;;2.40;2.30;;;;;;;12.32;70.81;101259.16;695327;28;1686;-63
2021/05/28 00:07:45;;;;;;;2.80;2.60;;;;;;;12.32;70.85;101255.59;694430;28;20713;-63
2021/05/28 00:08:07;;;;;;;2.50;2.40;;;;;;;12.32;71.05;101258.31;694062;28;23401;-63
2021/05/28 00:08:28;;;;;;;2.50;2.30;;;;;;;12.33;71.16;101260.00;697038;28;46965;-63
2021/05/28 00:08:49;;;;;;;2.75;2.25;;;;;;;12.32;71.20;101261.00;698079;28;16208;-63
2021/05/28 00:09:11;;;;;;;2.50;2.38;;;;;;;12.33;70.89;101260.00;697639;28;23523;-63
2021/05/28 00:09:32;;;;;;;2.80;2.60;;;;;;;12.32;71.17;101263.72;696535;28;46365;-63
2021/05/28 00:09:54;;;;;;;2.85;2.65;;;;;;;12.31;70.91;101262.88;698852;28;870;-63
2021/05/28 00:10:15;;;;;;;2.70;2.50;;;;;;;12.31;71.11;101262.06;697849;28;882;-63
2021/05/28 00:10:36;;;;;;;2.70;2.50;;;;;;;12.31;71.18;101265.59;694785;28;950;-63
2021/05/28 00:10:58;;;;;;;2.30;2.20;;;;;;;12.31;70.93;101262.06;694187;28;23427;-64
2021/05/28 00:11:19;;;;;;;2.35;2.25;;;;;;;12.31;70.94;101262.06;693705;28;37405;-63
2021/05/28 00:11:40;;;;;;;2.70;2.40;;;;;;;12.31;70.95;101259.34;695435;28;22504;-63
2021/05/28 00:12:03;;;;;;;2.85;2.33;;;;;;;12.31;71.38;101262.88;696158;28;1355;-63
2021/05/28 00:12:25;;;;;;;2.47;2.20;;;;;;;12.31;71.16;101262.88;694837;28;33610;-63
2021/05/28 00:12:46;;;;;;;2.58;2.47;;;;;;;12.31;71.13;101264.75;694027;28;45368;-63
2021/05/28 00:13:08;;;;;;;2.83;2.70;;;;;;;12.29;71.51;101262.22;695224;28;22373;-63
2021/05/28 00:13:29;;;;;;;2.90;2.80;;;;;;;12.28;71.07;101260.53;694660;28;46648;-63
2021/05/28 00:13:51;;;;;;;2.72;2.53;;;;;;;12.27;71.07;101256.13;694270;28;20446;-63
2021/05/28 00:14:12;;;;;;;2.53;2.30;;;;;;;12.27;71.46;101256.13;694001;28;32766;-63
2021/05/28 00:14:33;;;;;;;2.83;2.55;;;;;;;12.29;71.10;101266.78;694225;28;20114;-63
2021/05/28 00:14:54;;;;;;;3.03;2.72;;;;;;;12.26;71.18;101260.72;693723;28;23036;-63
2021/05/28 00:15:16;;;;;;;2.70;2.50;;;;;;;12.26;71.00;101260.72;695023;28;1620;-63
2021/05/28 00:15:39;;;;;;;2.40;2.20;;;;;;;12.28;71.15;101265.94;695042;28;879;-63
2021/05/28 00:16:04;;;;;;;2.50;2.40;;;;;;;12.27;71.43;101264.25;692755;28;62312;-63
2021/05/28 00:16:25;;;;;;;2.60;2.40;;;;;;;12.26;71.64;101259.88;693816;28;22063;-63
2021/05/28 00:16:46;;;;;;;2.63;2.30;;;;;;;12.26;71.24;101268.84;693380;28;44286;-63
2021/05/28 00:17:14;;;;;;;2.70;2.50;;;;;;;12.26;71.37;101263.41;692871;28;60908;-63
2021/05/28 00:17:36;;;;;;;2.83;2.60;;;;;;;12.26;71.43;101271.53;695192;28;928;-63
2021/05/28 00:17:58;;;;;;;3.72;2.50;;;;;;;12.25;71.60;101264.41;695195;28;1659;-63
2021/05/28 00:18:20;;;;;;;2.90;2.60;;;;;;;12.25;71.39;101264.41;695222;28;1068;-63
2021/05/28 00:18:42;;;;;;;4.90;2.60;;;;;;;12.26;71.45;101258.00;694299;28;21372;-63
2021/05/28 00:19:03;;;;;;;2.63;2.50;;;;;;;12.27;71.11;101264.25;694699;28;12995;-63
2021/05/28 00:19:24;;;;;;;2.83;2.53;;;;;;;12.28;71.16;101270.53;693030;28;42653;-63
2021/05/28 00:19:45;;;;;;;3.97;2.65;;;;;;;12.26;71.31;101263.41;694076;28;22084;-63
2021/05/28 00:20:09;;;;;;;3.10;2.80;;;;;;;12.27;71.54;101266.97;695670;28;1515;-63
2021/05/28 00:20:30;;;;;;;2.72;2.53;;;;;;;12.25;71.45;101263.59;694376;28;51749;-63
2021/05/28 00:20:51;;;;;;;2.90;2.70;;;;;;;12.23;71.58;101266.47;695098;28;34529;-63
2021/05/28 00:21:12;;;;;;;3.10;2.80;;;;;;;12.24;71.42;101261.88;695185;28;20839;-63
2021/05/28 00:21:34;;;;;;;2.90;2.70;;;;;;;12.24;71.60;101267.31;695744;28;19495;-64
2021/05/28 00:21:55;;;;;;;2.90;2.70;;;;;;;12.24;71.63;101262.75;693926;28;45263;-64
2021/05/28 00:22:16;;;;;;;2.60;2.40;;;;;;;12.24;71.57;101272.72;694349;28;22483;-64
2021/05/28 00:22:38;;;;;;;2.60;2.40;;;;;;;12.24;71.43;101262.75;694182;28;21235;-63
2021/05/28 00:22:59;;;;;;;2.95;2.70;;;;;;;12.24;71.71;101270.00;694212;28;23406;-63
2021/05/28 00:23:20;;;;;;;6.63;2.75;;;;;;;12.23;71.75;101273.75;694935;28;983;-63
2021/05/28 00:23:41;;;;;;;6.22;2.80;;;;;;;12.22;71.43;101270.19;694353;28;23401;-63
2021/05/28 00:24:04;;;;;;;2.97;2.80;;;;;;;12.22;71.96;101272.91;694443;28;21481;-63
2021/05/28 00:24:25;;;;;;;2.80;2.60;;;;;;;12.22;71.77;101277.47;694188;28;25559;-63
2021/05/28 00:24:46;;;;;;;2.67;2.58;;;;;;;12.21;71.93;101270.38;693947;28;25622;-64
2021/05/28 00:25:09;;;;;;;2.80;2.50;;;;;;;12.21;71.96;101276.66;694341;28;18901;-64
2021/05/28 00:25:30;;;;;;;2.60;2.50;;;;;;;12.20;71.64;101272.25;693310;28;45295;-64
2021/05/28 00:25:51;;;;;;;2.65;2.45;;;;;;;12.21;71.79;101278.50;694249;28;21524;-64
2021/05/28 00:26:13;;;;;;;3.72;2.40;;;;;;;12.19;71.63;101273.25;695028;28;1894;-64
2021/05/28 00:26:34;;;;;;;3.25;2.40;;;;;;;12.20;71.65;101271.41;693153;28;40839;-64
2021/05/28 00:26:55;;;;;;;2.60;2.50;;;;;;;12.19;71.71;101275.13;694345;28;16611;-64
2021/05/28 00:27:17;;;;;;;2.70;2.50;;;;;;;12.19;71.88;101272.41;695398;28;17477;-64
2021/05/28 00:27:38;;;;;;;2.67;2.58;;;;;;;12.20;71.72;101276.81;694606;28;21536;-64
2021/05/28 00:27:59;;;;;;;3.03;2.75;;;;;;;12.20;72.05;101274.13;693793;28;21500;-64
2021/05/28 00:28:20;;;;;;;3.05;2.83;;;;;;;12.21;71.70;101278.50;694042;28;23651;-64
2021/05/28 00:28:47;;;;;;;2.47;2.38;;;;;;;12.20;71.67;101276.81;693823;28;21541;-64
2021/05/28 00:29:10;;;;;;;2.90;2.70;;;;;;;12.20;71.70;101277.66;694278;28;62321;-64
2021/05/28 00:29:32;;;;;;;2.70;2.50;;;;;;;12.20;71.78;101274.94;695889;28;1587;-64
2021/05/28 00:29:53;;;;;;;2.70;2.50;;;;;;;12.20;71.72;101277.66;695228;28;23530;-64
2021/05/28 00:30:15;;;;;;;2.90;2.60;;;;;;;12.21;72.04;101282.06;693972;28;23403;-64
2021/05/28 00:30:36;;;;;;;3.17;2.88;;;;;;;12.21;71.58;101273.94;693358;28;37594;-64
2021/05/28 00:30:57;;;;;;;2.75;2.55;;;;;;;12.19;71.91;101275.94;693891;28;21576;-64
2021/05/28 00:31:19;;;;;;;2.75;2.40;;;;;;;12.19;71.69;101281.38;694289;28;23443;-64
2021/05/28 00:31:41;;;;;;;3.25;2.35;;;;;;;12.19;72.09;101278.66;693230;28;46407;-64
2021/05/28 00:32:02;;;;;;;2.60;2.40;;;;;;;12.20;71.72;101280.38;693286;28;46385;-64
2021/05/28 00:32:23;;;;;;;2.70;2.50;;;;;;;12.21;71.75;101278.50;693299;28;47407;-64
2021/05/28 00:32:44;;;;;;;2.92;2.65;;;;;;;12.21;71.61;101267.66;694050;28;22466;-63
2021/05/28 00:33:06;;;;;;;2.83;2.63;;;;;;;12.20;71.70;101274.94;694238;28;22599;-63
2021/05/28 00:33:27;;;;;;;2.90;2.70;;;;;;;12.19;71.98;101275.94;693368;28;46266;-63
2021/05/28 00:33:48;;;;;;;2.95;2.70;;;;;;;12.19;71.62;101285.94;694181;28;22416;-64
2021/05/28 00:34:10;;;;;;;3.03;2.80;;;;;;;12.19;71.67;101286.78;694008;28;24210;-64
2021/05/28 00:34:31;;;;;;;3.10;2.80;;;;;;;12.20;72.09;101276.81;695073;28;1758;-64
2021/05/28 00:34:52;;;;;;;2.78;2.58;;;;;;;12.19;72.00;101281.38;693410;28;47749;-64
2021/05/28 00:35:13;;;;;;;2.85;2.65;;;;;;;12.19;72.18;101280.53;694188;28;22232;-64
2021/05/28 00:35:35;;;;;;;2.97;2.78;;;;;;;12.19;71.90;101281.38;694359;28;14145;-64
2021/05/28 00:35:56;;;;;;;2.75;2.65;;;;;;;12.18;72.18;101276.16;694646;28;2616;-64
2021/05/28 00:36:17;;;;;;;3.22;2.92;;;;;;;12.18;71.87;101276.16;694164;28;23537;-64
2021/05/28 00:36:39;;;;;;;3.22;2.95;;;;;;;12.18;72.08;101282.41;693052;28;44475;-64
2021/05/28 00:37:00;;;;;;;3.27;2.87;;;;;;;12.18;72.22;101277.00;693700;28;47353;-64
2021/05/28 00:37:21;;;;;;;3.47;3.08;;;;;;;12.19;72.14;101280.53;694333;28;44516;-64
2021/05/28 00:37:43;;;;;;;3.15;2.95;;;;;;;12.19;71.99;101281.38;694990;28;23655;-64
2021/05/28 00:38:04;;;;;;;2.90;2.70;;;;;;;12.19;71.98;101277.81;694975;28;10703;-63
2021/05/28 00:38:25;;;;;;;3.45;2.78;;;;;;;12.19;72.08;101272.41;694199;28;47210;-63
2021/05/28 00:38:47;;;;;;;3.30;2.80;;;;;;;12.18;72.12;101277.00;694092;28;23322;-63
2021/05/28 00:39:08;;;;;;;2.83;2.63;;;;;;;12.18;71.82;101282.41;696012;28;949;-63
2021/05/28 00:39:30;;;;;;;3.05;2.85;;;;;;;12.16;71.88;101279.03;694181;28;1772;-63
2021/05/28 00:39:52;;;;;;;4.00;2.80;;;;;;;12.17;72.25;101280.72;693988;28;23513;-63
2021/05/28 00:40:14;;;;;;;4.85;2.80;;;;;;;12.18;72.32;101279.69;694128;28;22488;-63
2021/05/28 00:40:35;;;;;;;2.80;2.70;;;;;;;12.18;72.36;101279.69;696066;28;62190;-63
2021/05/28 00:40:56;;;;;;;3.00;2.80;;;;;;;12.18;72.00;101284.28;697105;28;45303;-63
2021/05/28 00:41:17;;;;;;;3.03;2.83;;;;;;;12.17;72.39;101283.41;698143;28;24339;-63
2021/05/28 00:41:39;;;;;;;3.22;2.92;;;;;;;12.16;72.00;101279.03;698214;28;22298;-63
2021/05/28 00:42:00;;;;;;;2.97;2.78;;;;;;;12.18;72.14;101282.41;698014;28;21570;-63
2021/05/28 00:42:21;;;;;;;3.30;2.63;;;;;;;12.18;72.00;101278.88;697868;28;22404;-63
2021/05/28 00:42:42;;;;;;;3.55;3.03;;;;;;;12.19;72.35;101285.94;693957;28;23477;-63
2021/05/28 00:43:03;;;;;;;3.10;2.83;;;;;;;12.19;72.16;101285.94;693979;28;22379;-63
2021/05/28 00:43:24;;;;;;;2.83;2.70;;;;;;;12.19;71.85;101286.78;693619;28;37766;-63
2021/05/28 00:43:45;;;;;;;2.90;2.70;;;;;;;12.20;71.83;101280.38;694223;28;22396;-63
2021/05/28 00:44:07;;;;;;;2.70;2.60;;;;;;;12.19;72.18;101278.66;694059;28;23308;-63
2021/05/28 00:44:29;;;;;;;2.67;2.47;;;;;;;12.19;72.30;101278.66;694794;28;1834;-63
2021/05/28 00:44:50;;;;;;;2.80;2.60;;;;;;;12.18;71.82;101274.28;694206;28;21534;-63
2021/05/28 00:45:12;;;;;;;2.97;2.78;;;;;;;12.18;72.26;101284.28;694303;28;23465;-63
2021/05/28 00:45:33;;;;;;;3.83;3.10;;;;;;;12.20;72.01;101284.94;693591;28;44320;-63
2021/05/28 00:45:55;;;;;;;3.28;2.97;;;;;;;12.20;71.97;101287.66;694217;28;18093;-63
2021/05/28 00:46:16;;;;;;;2.80;2.60;;;;;;;12.18;72.05;101277.00;694659;28;12076;-63
2021/05/28 00:46:37;;;;;;;3.20;3.00;;;;;;;12.18;72.34;101282.41;693793;28;22480;-63
2021/05/28 00:46:59;;;;;;;2.75;2.63;;;;;;;12.18;71.94;101277.00;694869;28;838;-63
2021/05/28 00:47:20;;;;;;;2.80;2.70;;;;;;;12.19;72.01;101278.66;694781;28;4697;-63
2021/05/28 00:47:41;;;;;;;2.95;2.80;;;;;;;12.20;71.88;101276.81;693491;28;34686;-63
2021/05/28 00:48:03;;;;;;;3.08;2.88;;;;;;;12.19;72.17;101280.53;693900;28;23436;-63
2021/05/28 00:48:24;;;;;;;3.37;3.10;;;;;;;12.19;72.06;101278.66;693263;28;46093;-63
2021/05/28 00:48:48;;;;;;;3.10;2.80;;;;;;;12.19;71.86;101281.38;693322;28;44432;-63
2021/05/28 00:49:09;;;;;;;3.95;2.78;;;;;;;12.19;72.01;101278.66;691117;28;115251;-63
2021/05/28 00:49:30;;;;;;;3.20;2.90;;;;;;;12.19;71.81;101281.38;692895;28;40274;-63
2021/05/28 00:49:52;;;;;;;3.05;2.83;;;;;;;12.20;72.23;101282.25;694131;28;21528;-63
2021/05/28 00:50:14;;;;;;;3.13;2.92;;;;;;;12.20;72.29;101288.47;694193;28;22431;-63
2021/05/28 00:50:35;;;;;;;2.88;2.78;;;;;;;12.19;72.24;101281.38;694895;28;826;-63
2021/05/28 00:50:56;;;;;;;3.08;2.78;;;;;;;12.18;72.13;101284.28;694816;28;1758;-63
2021/05/28 00:51:17;;;;;;;3.25;2.95;;;;;;;12.19;71.86;101288.66;693708;28;46511;-63
2021/05/28 00:51:39;;;;;;;3.30;3.10;;;;;;;12.18;71.93;101285.13;694673;28;7060;-63
2021/05/28 00:52:01;;;;;;;3.17;2.97;;;;;;;12.19;72.24;101285.94;693373;28;45628;-63
2021/05/28 00:52:23;;;;;;;2.97;2.78;;;;;;;12.19;72.06;101281.38;692285;28;69213;-63
2021/05/28 00:52:44;;;;;;;3.03;2.78;;;;;;;12.19;71.96;101286.78;694084;28;22431;-63
2021/05/28 00:53:05;;;;;;;2.97;2.77;;;;;;;12.17;72.27;101272.59;693174;28;46331;-63
2021/05/28 00:53:28;;;;;;;2.90;2.80;;;;;;;12.18;72.13;101295.94;693600;28;46204;-63
2021/05/28 00:53:49;;;;;;;3.00;2.80;;;;;;;12.18;72.33;101290.53;693442;28;44457;-63
2021/05/28 00:54:11;;;;;;;2.53;2.40;;;;;;;12.18;72.30;101287.81;694358;28;14638;-63
2021/05/28 00:54:32;;;;;;;3.10;2.90;;;;;;;12.18;72.28;101289.69;693317;28;47625;-63
2021/05/28 00:54:54;;;;;;;3.10;2.90;;;;;;;12.18;71.97;101287.81;694105;28;21526;-63
2021/05/28 00:55:15;;;;;;;3.03;2.83;;;;;;;12.18;72.17;101287.81;693413;28;44395;-63
2021/05/28 00:55:36;;;;;;;4.38;3.10;;;;;;;12.19;72.34;101288.66;694309;28;22343;-63
2021/05/28 00:55:58;;;;;;;3.20;2.90;;;;;;;12.18;72.26;101290.53;693821;28;22472;-63
2021/05/28 00:56:19;;;;;;;2.80;2.60;;;;;;;12.18;72.01;101295.13;693498;28;45038;-63
2021/05/28 00:56:42;;;;;;;3.05;2.85;;;;;;;12.18;72.26;101290.53;693977;28;4226;-63
2021/05/28 00:57:04;;;;;;;3.17;2.97;;;;;;;12.16;71.82;101289.88;693296;28;46460;-63
2021/05/28 00:57:27;;;;;;;3.30;3.10;;;;;;;12.17;72.34;101286.13;693229;28;46368;-63
2021/05/28 00:57:48;;;;;;;3.47;2.90;;;;;;;12.16;72.47;101289.88;692808;28;62482;-63
2021/05/28 00:58:10;;;;;;;3.03;2.83;;;;;;;12.16;72.08;101292.59;694140;28;24393;-63
2021/05/28 00:58:31;;;;;;;3.50;3.20;;;;;;;12.17;72.47;101288.84;693319;28;40891;-63
2021/05/28 00:58:58;;;;;;;3.30;3.00;;;;;;;12.18;71.97;101289.69;693917;28;23744;-63
2021/05/28 00:59:20;;;;;;;3.00;2.80;;;;;;;12.17;72.49;101283.41;689297;28;138261;-63
2021/05/28 00:59:41;;;;;;;3.35;3.05;;;;;;;12.18;72.31;101293.25;693050;28;46367;-63
2021/05/28 01:00:04;;;;;;;3.25;3.00;;;;;;;12.20;72.02;101288.47;694529;28;9030;-63
2021/05/28 01:00:28;;;;;;;3.28;3.08;;;;;;;12.20;72.04;101293.91;692396;28;69451;-63
2021/05/28 01:00:49;;;;;;;3.35;3.15;;;;;;;12.21;72.21;101289.31;691615;28;92272;-63
2021/05/28 01:01:10;;;;;;;3.20;3.00;;;;;;;12.21;72.06;101297.44;694254;28;18346;-63
2021/05/28 01:01:32;;;;;;;3.33;3.10;;;;;;;12.20;72.10;101295.78;694153;28;20116;-63
2021/05/28 01:01:55;;;;;;;3.33;3.10;;;;;;;12.20;71.73;101290.34;693478;28;39840;-63
2021/05/28 01:02:16;;;;;;;3.03;2.80;;;;;;;12.21;72.25;101292.88;694165;28;32703;-63
2021/05/28 01:02:38;;;;;;;3.10;2.90;;;;;;;12.21;72.04;101295.59;694939;28;1759;-63
2021/05/28 01:02:59;;;;;;;3.50;3.20;;;;;;;12.20;71.84;101296.59;693746;28;16798;-63
2021/05/28 01:03:20;;;;;;;4.07;3.00;;;;;;;12.21;72.29;101294.72;693468;28;37077;-64
2021/05/28 01:03:41;;;;;;;4.32;2.92;;;;;;;12.21;72.35;101301.03;694010;28;22477;-63
2021/05/28 01:04:03;;;;;;;3.58;3.28;;;;;;;12.20;72.28;101298.47;694147;28;20830;-63
2021/05/28 01:04:24;;;;;;;3.40;3.20;;;;;;;12.20;72.12;101301.19;693639;28;46285;-63
2021/05/28 01:04:45;;;;;;;3.10;2.90;;;;;;;12.20;72.24;101299.31;694062;28;22430;-63
2021/05/28 01:05:07;;;;;;;3.20;2.90;;;;;;;12.20;72.05;101304.72;694239;28;23478;-63
2021/05/28 01:05:29;;;;;;;2.92;2.80;;;;;;;12.19;72.27;101303.03;693443;28;47302;-63
2021/05/28 01:05:50;;;;;;;3.00;2.80;;;;;;;12.20;72.37;101304.72;694055;28;20820;-64
2021/05/28 01:06:11;;;;;;;2.90;2.80;;;;;;;12.20;72.23;101306.59;694229;28;21582;-63
2021/05/28 01:06:32;;;;;;;2.97;2.80;;;;;;;12.21;71.74;101311.84;693812;28;19598;-63
2021/05/28 01:06:54;;;;;;;3.38;3.17;;;;;;;12.22;71.92;101304.56;694692;28;23513;-63
2021/05/28 01:07:16;;;;;;;3.35;3.15;;;;;;;12.22;71.63;101307.28;693606;28;69368;-63
2021/05/28 01:07:37;;;;;;;4.07;3.10;;;;;;;12.21;72.17;101302.84;694613;28;36526;-64
2021/05/28 01:07:58;;;;;;;4.00;3.00;;;;;;;12.21;71.72;101305.56;695285;28;22394;-63
2021/05/28 01:08:20;;;;;;;3.13;2.92;;;;;;;12.19;72.01;101300.31;694767;28;22379;-64
2021/05/28 01:08:41;;;;;;;3.20;2.90;;;;;;;12.19;72.03;101302.19;694634;28;23482;-64
2021/05/28 01:09:03;;;;;;;3.97;2.97;;;;;;;12.19;71.83;101307.63;693900;28;23415;-63
2021/05/28 01:09:24;;;;;;;3.50;3.20;;;;;;;12.18;72.21;101306.78;692759;28;46262;-64
2021/05/28 01:09:45;;;;;;;3.30;3.10;;;;;;;12.19;71.87;101311.16;694319;28;23427;-64
2021/05/28 01:10:07;;;;;;;3.33;3.10;;;;;;;12.19;71.73;101307.63;693906;28;23277;-63
2021/05/28 01:10:28;;;;;;;3.33;3.10;;;;;;;12.18;72.14;101309.50;693235;28;46370;-63
2021/05/28 01:10:49;;;;;;;3.47;3.20;;;;;;;12.18;71.82;101309.50;694844;28;2492;-63
2021/05/28 01:11:11;;;;;;;3.33;3.03;;;;;;;12.16;72.06;101306.13;694620;28;1468;-63
2021/05/28 01:11:36;;;;;;;3.17;2.97;;;;;;;12.16;71.89;101306.13;694437;28;23813;-63
2021/05/28 01:11:57;;;;;;;3.22;3.03;;;;;;;12.16;72.08;101308.81;693304;28;41263;-64
2021/05/28 01:12:18;;;;;;;3.20;3.00;;;;;;;12.16;72.20;101306.13;694232;28;22377;-63
2021/05/28 01:12:39;;;;;;;3.20;3.00;;;;;;;12.15;71.95;101301.72;694131;28;21343;-63
2021/05/28 01:13:04;;;;;;;3.50;3.20;;;;;;;12.16;71.79;101313.38;694371;28;23550;-63
2021/05/28 01:13:27;;;;;;;3.40;3.20;;;;;;;12.15;72.12;101306.28;690961;28;115289;-64
2021/05/28 01:13:48;;;;;;;3.50;3.28;;;;;;;12.14;71.89;101310.84;692604;28;70499;-63
2021/05/28 01:14:09;;;;;;;3.22;3.00;;;;;;;12.15;72.26;101309.00;693397;28;45091;-63
2021/05/28 01:14:33;;;;;;;4.13;3.20;;;;;;;12.14;71.78;101308.13;693880;28;21604;-64
2021/05/28 01:14:55;;;;;;;3.65;3.35;;;;;;;12.13;71.79;101303.75;691554;28;93146;-64
2021/05/28 01:15:16;;;;;;;3.50;3.20;;;;;;;12.13;71.96;101303.75;694018;28;23457;-64
2021/05/28 01:15:38;;;;;;;3.20;3.00;;;;;;;12.12;71.97;101304.75;694437;28;13330;-63
2021/05/28 01:15:59;;;;;;;3.20;2.90;;;;;;;12.10;72.11;101298.69;692971;28;46333;-63
2021/05/28 01:16:21;;;;;;;3.20;3.00;;;;;;;12.11;72.47;101300.34;694655;28;1910;-64
2021/05/28 01:16:42;;;;;;;3.33;3.13;;;;;;;12.10;72.29;101301.41;693509;28;22420;-63
2021/05/28 01:17:03;;;;;;;3.65;3.40;;;;;;;12.10;72.31;101309.53;694325;28;20124;-63
2021/05/28 01:17:24;;;;;;;3.40;3.10;;;;;;;12.10;72.36;101301.41;694693;28;902;-64
2021/05/28 01:17:46;;;;;;;3.17;2.92;;;;;;;12.10;72.33;101306.81;693746;28;34931;-63
2021/05/28 01:18:08;;;;;;;3.63;3.33;;;;;;;12.10;72.54;101309.53;694280;28;17819;-64
2021/05/28 01:18:35;;;;;;;4.53;3.60;;;;;;;12.11;72.50;101300.34;692710;28;59921;-64
2021/05/28 01:18:58;;;;;;;4.00;3.40;;;;;;;12.11;72.24;101300.34;693879;28;21531;-63
2021/05/28 01:19:19;;;;;;;3.30;3.10;;;;;;;12.11;72.32;101300.34;691914;28;69264;-64
2021/05/28 01:19:40;;;;;;;4.07;2.97;;;;;;;12.10;72.49;101303.25;693833;28;16931;-64
2021/05/28 01:20:02;;;;;;;3.30;3.00;;;;;;;12.10;72.42;101306.81;693829;28;22414;-64
2021/05/28 01:20:23;;;;;;;3.42;3.22;;;;;;;12.11;72.55;101305.78;693410;28;43036;-63
2021/05/28 01:20:45;;;;;;;3.17;2.97;;;;;;;12.12;72.12;101302.06;694123;28;23032;-64
2021/05/28 01:21:06;;;;;;;3.28;3.08;;;;;;;12.12;72.32;101306.63;694637;28;9430;-64
2021/05/28 01:21:28;;;;;;;3.50;3.20;;;;;;;12.11;72.16;101304.94;695002;28;938;-64
2021/05/28 01:21:49;;;;;;;3.35;3.05;;;;;;;12.11;72.24;101304.94;693822;28;26501;-63
2021/05/28 01:22:11;;;;;;;3.47;3.17;;;;;;;12.11;72.30;101302.22;694622;28;8855;-63
2021/05/28 01:22:32;;;;;;;3.53;3.22;;;;;;;12.11;72.41;101304.94;693171;28;46417;-64
2021/05/28 01:22:53;;;;;;;3.67;3.30;;;;;;;12.10;72.31;101304.09;694389;28;12260;-63
2021/05/28 01:23:15;;;;;;;3.55;3.25;;;;;;;12.10;72.27;101300.53;694227;28;16849;-64
2021/05/28 01:23:36;;;;;;;3.25;3.00;;;;;;;12.10;72.21;101300.53;693789;28;20905;-63
2021/05/28 01:23:57;;;;;;;3.22;2.97;;;;;;;12.07;72.69;101299.88;693169;28;46398;-64
2021/05/28 01:24:19;;;;;;;3.17;2.97;;;;;;;12.08;72.35;101300.69;693874;28;23705;-63
2021/05/28 01:24:40;;;;;;;3.45;3.20;;;;;;;12.07;72.42;101297.16;693694;28;23480;-63
2021/05/28 01:25:01;;;;;;;3.50;3.10;;;;;;;12.07;72.40;101299.03;693729;28;23447;-63
2021/05/28 01:25:23;;;;;;;3.50;3.20;;;;;;;12.08;72.41;101306.13;693998;28;23555;-63
2021/05/28 01:25:44;;;;;;;3.55;3.35;;;;;;;12.08;72.15;101303.41;692701;28;69441;-64
2021/05/28 01:26:06;;;;;;;3.30;3.10;;;;;;;12.07;72.30;101302.56;694123;28;21048;-64
2021/05/28 01:26:27;;;;;;;3.40;2.90;;;;;;;12.07;72.27;101302.56;693336;28;46409;-63
2021/05/28 01:26:48;;;;;;;4.85;3.15;;;;;;;12.07;72.62;101308.00;693889;28;13813;-63
2021/05/28 01:27:10;;;;;;;3.47;3.17;;;;;;;12.07;72.63;101299.03;694062;28;23598;-63
2021/05/28 01:27:31;;;;;;;3.20;2.90;;;;;;;12.06;72.71;101302.75;693404;28;47289;-63
2021/05/28 01:27:53;;;;;;;3.38;3.08;;;;;;;12.04;72.41;101302.91;693853;28;22067;-64
2021/05/28 01:28:14;;;;;;;3.45;3.25;;;;;;;12.05;72.51;101310.03;693325;28;42489;-63
2021/05/28 01:28:36;;;;;;;3.40;3.20;;;;;;;12.04;72.89;101304.78;694307;28;12987;-63
2021/05/28 01:28:57;;;;;;;3.55;3.30;;;;;;;12.04;72.32;101300.22;693226;28;22399;-64
2021/05/28 01:29:18;;;;;;;3.60;3.30;;;;;;;12.05;72.41;101303.75;692580;28;44120;-64
2021/05/28 01:29:41;;;;;;;3.45;3.20;;;;;;;12.05;72.88;101311.88;691436;28;985;-64
2021/05/28 01:30:03;;;;;;;3.30;3.03;;;;;;;12.06;72.63;101305.47;687807;28;38840;-63
2021/05/28 01:30:25;;;;;;;3.03;2.83;;;;;;;12.06;72.45;101308.16;686868;28;62359;-63
2021/05/28 01:30:46;;;;;;;3.38;3.17;;;;;;;12.04;72.83;101300.22;687751;28;68422;-63
2021/05/28 01:31:08;;;;;;;3.40;3.10;;;;;;;12.07;72.63;101304.44;692692;28;11854;-64
2021/05/28 01:31:30;;;;;;;3.50;3.20;;;;;;;12.07;72.67;101312.56;693321;28;22427;-62
2021/05/28 01:31:52;;;;;;;3.33;3.08;;;;;;;12.08;72.63;101316.94;695968;28;15751;-63
2021/05/28 01:32:15;;;;;;;3.47;3.20;;;;;;;12.07;72.37;101316.13;695946;28;16633;-64
2021/05/28 01:32:36;;;;;;;3.33;3.13;;;;;;;12.07;72.57;101308.00;693246;28;44387;-64
2021/05/28 01:32:57;;;;;;;3.33;3.03;;;;;;;12.08;72.42;101306.13;693851;28;15405;-63
2021/05/28 01:33:18;;;;;;;3.33;3.13;;;;;;;12.07;72.57;101310.69;693414;28;44405;-63
2021/05/28 01:33:41;;;;;;;3.40;3.10;;;;;;;12.08;72.29;101309.69;694015;28;23400;-64
2021/05/28 01:34:03;;;;;;;5.07;3.40;;;;;;;12.08;72.56;101306.13;693533;28;33090;-64
2021/05/28 01:34:24;;;;;;;4.13;3.20;;;;;;;12.07;72.82;101302.56;693619;28;36617;-64
2021/05/28 01:34:46;;;;;;;3.50;3.20;;;;;;;12.08;72.58;101312.41;693710;28;36611;-64
2021/05/28 01:35:08;;;;;;;4.40;3.40;;;;;;;12.08;72.34;101319.66;695386;28;15205;-63
2021/05/28 01:35:29;;;;;;;3.40;3.10;;;;;;;12.08;72.21;101314.25;693397;28;69385;-64
2021/05/28 01:35:51;;;;;;;3.33;3.10;;;;;;;12.07;72.60;101308.00;694949;28;22959;-64
2021/05/28 01:36:12;;;;;;;3.60;3.30;;;;;;;12.07;72.60;101315.28;694355;28;13052;-64
2021/05/28 01:36:33;;;;;;;3.70;3.42;;;;;;;12.05;72.41;101312.75;693956;28;43173;-63
2021/05/28 01:36:54;;;;;;;3.78;3.47;;;;;;;12.05;72.62;101315.44;694423;28;24209;-64
2021/05/28 01:37:17;;;;;;;3.78;3.28;;;;;;;12.07;72.53;101315.28;694284;28;17041;-64
2021/05/28 01:37:38;;;;;;;4.30;3.42;;;;;;;12.06;72.55;101317.13;693394;28;46269;-64
2021/05/28 01:37:59;;;;;;;4.20;3.50;;;;;;;12.07;72.32;101318.81;693144;28;45430;-63
2021/05/28 01:38:21;;;;;;;3.88;3.58;;;;;;;12.07;72.29;101307.16;693722;28;23415;-64
2021/05/28 01:38:42;;;;;;;3.60;3.30;;;;;;;12.06;72.30;101313.56;693951;28;22460;-64
2021/05/28 01:39:04;;;;;;;3.58;3.30;;;;;;;12.08;72.67;101311.53;694069;28;22408;-63
2021/05/28 01:39:25;;;;;;;3.80;3.40;;;;;;;12.08;72.52;101323.22;694309;28;866;-63
2021/05/28 01:39:49;;;;;;;3.72;3.28;;;;;;;12.07;72.60;101316.13;694122;28;16156;-63
2021/05/28 01:40:11;;;;;;;3.60;3.22;;;;;;;12.06;72.13;101317.13;692392;28;58076;-64
2021/05/28 01:40:33;;;;;;;3.50;3.20;;;;;;;12.05;72.31;101307.31;692087;28;69390;-62
2021/05/28 01:40:54;;;;;;;3.40;3.03;;;;;;;12.05;72.74;101312.75;693800;28;18124;-63
2021/05/28 01:41:16;;;;;;;3.33;3.03;;;;;;;12.05;72.77;101317.28;690936;28;36253;-64
2021/05/28 01:41:37;;;;;;;3.35;3.15;;;;;;;12.05;72.64;101317.28;691923;28;23495;-62
2021/05/28 01:41:58;;;;;;;4.35;3.42;;;;;;;12.05;72.64;101320.88;689240;28;23543;-63